Other Surface Observations
Issued by NWS Great Falls, MT

Home | Current Version | Previous Version | Text Only | Print | Product List | Glossary On
Versions: 1 2 3 4 5 6 7 8 9 10 11 12 13 14 15 16 17 18 19 20 21 22 23 24 25 26 27 28 29 30 31 32 33 34 35 36 37 38 39 40 41 42 43 44 45 46 47 48 49 50
000
SXUS55 KTFX 250052
OSOTFX

AREA AWOS OBSERVATIONS
NATIONAL WEATHER SERVICE GREAT FALLS MT
0650 PM MDT Thu Apr 24 2014

METAR K1S3 250045Z AUTO 25010G16KT 10SM 13/01 A2976
METAR K38S 250045Z AUTO 33007KT 10SM 08/02 A2986
METAR K6S0 250045Z AUTO 25012G24KT 10SM 10/01 A2979
METAR K6S5 250045Z AUTO 24005KT 10SM 08/02 A2988
METAR K79S 250045Z AUTO 00000KT 12/06 A2972
METAR K88M 250045Z AUTO 13008KT 10SM 09/06
METAR KEKS 250045Z AUTO 00000KT 2SM 04/02 A2995
METAR KPO1 250045Z AUTO 25007KT 10SM 15/M09 A2970
METAR KPWD 250045Z AUTO 28008KT 10SM 13/M03 A2970
METAR KS59 250045Z AUTO 15005KT 10SM 09/03 A2980
METAR KS71 250045Z AUTO 24003KT 10SM 14/00 A2969



USA.gov is the U.S. government's official web portal to all federal, state and local government web resources and services.